sensor_id;sensor_type;location;lat;lon;timestamp;temperature;humidity
16172;DHT22;8192;53.596;10.166;2022-12-18T00:00:07;-6.40;99.90
16172;DHT22;8192;53.596;10.166;2022-12-18T00:02:36;-6.60;99.90
16172;DHT22;8192;53.596;10.166;2022-12-18T00:05:06;-6.80;99.90
16172;DHT22;8192;53.596;10.166;2022-12-18T00:07:36;-6.90;99.90
16172;DHT22;8192;53.596;10.166;2022-12-18T00:10:11;-7.10;99.90
16172;DHT22;8192;53.596;10.166;2022-12-18T00:12:39;-7.20;99.90
16172;DHT22;8192;53.596;10.166;2022-12-18T00:15:09;-7.30;99.90
16172;DHT22;8192;53.596;10.166;2022-12-18T00:17:39;-7.40;99.90
16172;DHT22;8192;53.596;10.166;2022-12-18T00:20:09;-7.50;99.90
16172;DHT22;8192;53.596;10.166;2022-12-18T00:22:39;-7.40;99.90
16172;DHT22;8192;53.596;10.166;2022-12-18T00:25:14;-7.30;99.90
16172;DHT22;8192;53.596;10.166;2022-12-18T00:27:49;-7.30;99.90
16172;DHT22;8192;53.596;10.166;2022-12-18T00:30:19;-7.40;99.90
16172;DHT22;8192;53.596;10.166;2022-12-18T00:32:48;-7.40;99.90
16172;DHT22;8192;53.596;10.166;2022-12-18T00:35:16;-7.30;99.90
16172;DHT22;8192;53.596;10.166;2022-12-18T00:37:45;-7.60;99.90
16172;DHT22;8192;53.596;10.166;2022-12-18T00:40:21;-7.80;99.90
16172;DHT22;8192;53.596;10.166;2022-12-18T00:42:51;-8.00;99.90
16172;DHT22;8192;53.596;10.166;2022-12-18T00:48:27;-8.30;99.90
16172;DHT22;8192;53.596;10.166;2022-12-18T00:51:08;-8.30;99.90
16172;DHT22;8192;53.596;10.166;2022-12-18T00:53:54;-8.50;99.90
16172;DHT22;8192;53.596;10.166;2022-12-18T00:56:56;-8.30;99.90
16172;DHT22;8192;53.596;10.166;2022-12-18T00:59:45;-7.90;99.90
16172;DHT22;8192;53.596;10.166;2022-12-18T01:02:18;-7.40;99.90
16172;DHT22;8192;53.596;10.166;2022-12-18T01:05:23;-7.30;99.90
16172;DHT22;8192;53.596;10.166;2022-12-18T01:07:53;-7.20;99.90
16172;DHT22;8192;53.596;10.166;2022-12-18T01:10:27;-7.20;99.90
16172;DHT22;8192;53.596;10.166;2022-12-18T01:13:30;-7.20;99.90
16172;DHT22;8192;53.596;10.166;2022-12-18T01:16:45;-7.20;99.90
16172;DHT22;8192;53.596;10.166;2022-12-18T01:19:34;-7.20;99.90
16172;DHT22;8192;53.596;10.166;2022-12-18T01:22:16;-7.10;99.90
16172;DHT22;8192;53.596;10.166;2022-12-18T01:25:15;-7.00;99.90
16172;DHT22;8192;53.596;10.166;2022-12-18T01:28:04;-7.20;99.90
16172;DHT22;8192;53.596;10.166;2022-12-18T01:31:16;-7.20;99.90
16172;DHT22;8192;53.596;10.166;2022-12-18T01:34:22;-7.30;99.90
16172;DHT22;8192;53.596;10.166;2022-12-18T01:37:09;-7.10;99.90
16172;DHT22;8192;53.596;10.166;2022-12-18T01:43:50;-7.00;99.90
16172;DHT22;8192;53.596;10.166;2022-12-18T01:47:01;-7.00;99.90
16172;DHT22;8192;53.596;10.166;2022-12-18T01:49:53;-7.00;99.90
16172;DHT22;8192;53.596;10.166;2022-12-18T01:53:11;-7.20;99.90
16172;DHT22;8192;53.596;10.166;2022-12-18T01:55:55;-7.30;99.90
16172;DHT22;8192;53.596;10.166;2022-12-18T01:59:19;-7.40;99.90
16172;DHT22;8192;53.596;10.166;2022-12-18T02:10:01;-7.70;99.90
16172;DHT22;8192;53.596;10.166;2022-12-18T02:13:09;-7.50;99.90
16172;DHT22;8192;53.596;10.166;2022-12-18T02:20:08;-7.60;99.90
16172;DHT22;8192;53.596;10.166;2022-12-18T02:23:20;-7.40;99.90
16172;DHT22;8192;53.596;10.166;2022-12-18T03:26:12;-8.20;99.90
16172;DHT22;8192;53.596;10.166;2022-12-18T03:29:09;-8.20;99.90
16172;DHT22;8192;53.596;10.166;2022-12-18T03:31:53;-8.10;99.90
16172;DHT22;8192;53.596;10.166;2022-12-18T03:34:46;-8.10;99.90
16172;DHT22;8192;53.596;10.166;2022-12-18T03:37:36;-8.20;99.90
16172;DHT22;8192;53.596;10.166;2022-12-18T03:40:24;-8.30;99.90
16172;DHT22;8192;53.596;10.166;2022-12-18T03:43:40;-8.20;99.90
16172;DHT22;8192;53.596;10.166;2022-12-18T03:46:59;-8.20;99.90
16172;DHT22;8192;53.596;10.166;2022-12-18T03:49:57;-8.20;99.90
16172;DHT22;8192;53.596;10.166;2022-12-18T03:52:45;-8.30;99.90
16172;DHT22;8192;53.596;10.166;2022-12-18T03:55:33;-8.40;99.90
16172;DHT22;8192;53.596;10.166;2022-12-18T03:58:25;-8.50;99.90
16172;DHT22;8192;53.596;10.166;2022-12-18T04:08:20;-8.50;99.90
16172;DHT22;8192;53.596;10.166;2022-12-18T04:11:02;-8.30;99.90
16172;DHT22;8192;53.596;10.166;2022-12-18T04:13:32;-8.30;99.90
16172;DHT22;8192;53.596;10.166;2022-12-18T04:16:01;-8.40;99.90
16172;DHT22;8192;53.596;10.166;2022-12-18T04:18:31;-8.40;99.90
16172;DHT22;8192;53.596;10.166;2022-12-18T04:20:59;-8.30;99.90
16172;DHT22;8192;53.596;10.166;2022-12-18T04:27:21;-8.40;99.90
16172;DHT22;8192;53.596;10.166;2022-12-18T04:29:58;-8.40;99.90
16172;DHT22;8192;53.596;10.166;2022-12-18T04:33:08;-8.40;99.90
16172;DHT22;8192;53.596;10.166;2022-12-18T04:35:54;-8.40;99.90
16172;DHT22;8192;53.596;10.166;2022-12-18T04:38:59;-8.60;99.90
16172;DHT22;8192;53.596;10.166;2022-12-18T04:41:42;-8.80;99.90
16172;DHT22;8192;53.596;10.166;2022-12-18T04:44:12;-8.90;99.90
16172;DHT22;8192;53.596;10.166;2022-12-18T04:46:40;-9.00;99.90
16172;DHT22;8192;53.596;10.166;2022-12-18T04:49:11;-8.80;99.90
16172;DHT22;8192;53.596;10.166;2022-12-18T04:51:40;-8.40;99.90
16172;DHT22;8192;53.596;10.166;2022-12-18T04:54:10;-8.20;99.90
16172;DHT22;8192;53.596;10.166;2022-12-18T04:56:38;-8.20;99.90
16172;DHT22;8192;53.596;10.166;2022-12-18T04:59:09;-8.10;99.90
16172;DHT22;8192;53.596;10.166;2022-12-18T05:01:56;-8.40;99.90
16172;DHT22;8192;53.596;10.166;2022-12-18T05:04:25;-8.50;99.90
16172;DHT22;8192;53.596;10.166;2022-12-18T05:07:02;-8.40;99.90
16172;DHT22;8192;53.596;10.166;2022-12-18T05:09:32;-8.60;99.90
16172;DHT22;8192;53.596;10.166;2022-12-18T05:12:03;-8.80;99.90
16172;DHT22;8192;53.596;10.166;2022-12-18T05:14:31;-8.80;99.90
16172;DHT22;8192;53.596;10.166;2022-12-18T05:17:08;-8.60;99.90
16172;DHT22;8192;53.596;10.166;2022-12-18T05:19:38;-8.50;99.90
16172;DHT22;8192;53.596;10.166;2022-12-18T05:22:08;-8.40;99.90
16172;DHT22;8192;53.596;10.166;2022-12-18T05:24:39;-8.50;99.90
16172;DHT22;8192;53.596;10.166;2022-12-18T05:27:08;-8.50;99.90
16172;DHT22;8192;53.596;10.166;2022-12-18T05:29:38;-8.50;99.90
16172;DHT22;8192;53.596;10.166;2022-12-18T05:32:08;-8.60;99.90
16172;DHT22;8192;53.596;10.166;2022-12-18T05:34:38;-8.50;99.90
16172;DHT22;8192;53.596;10.166;2022-12-18T05:37:10;-8.30;99.90
16172;DHT22;8192;53.596;10.166;2022-12-18T05:39:56;-8.10;99.90
16172;DHT22;8192;53.596;10.166;2022-12-18T05:42:26;-7.90;99.90
16172;DHT22;8192;53.596;10.166;2022-12-18T05:44:56;-7.90;99.90
16172;DHT22;8192;53.596;10.166;2022-12-18T05:47:28;-7.90;99.90
16172;DHT22;8192;53.596;10.166;2022-12-18T05:50:03;-7.90;99.90
16172;DHT22;8192;53.596;10.166;2022-12-18T05:52:34;-8.10;99.90
16172;DHT22;8192;53.596;10.166;2022-12-18T05:55:07;-8.20;99.90
16172;DHT22;8192;53.596;10.166;2022-12-18T05:57:48;-8.40;99.90
16172;DHT22;8192;53.596;10.166;2022-12-18T06:00:23;-8.60;99.90
16172;DHT22;8192;53.596;10.166;2022-12-18T06:06:19;-8.70;99.90
16172;DHT22;8192;53.596;10.166;2022-12-18T06:08:50;-8.80;99.90
16172;DHT22;8192;53.596;10.166;2022-12-18T06:11:23;-9.00;99.90
16172;DHT22;8192;53.596;10.166;2022-12-18T06:13:53;-9.00;99.90
16172;DHT22;8192;53.596;10.166;2022-12-18T06:16:23;-8.90;99.90
16172;DHT22;8192;53.596;10.166;2022-12-18T06:18:51;-8.90;99.90
16172;DHT22;8192;53.596;10.166;2022-12-18T06:21:24;-9.10;99.90
16172;DHT22;8192;53.596;10.166;2022-12-18T06:23:52;-9.20;99.90
16172;DHT22;8192;53.596;10.166;2022-12-18T06:26:21;-9.10;99.90
16172;DHT22;8192;53.596;10.166;2022-12-18T06:28:54;-9.20;99.90
16172;DHT22;8192;53.596;10.166;2022-12-18T06:31:23;-9.20;99.90
16172;DHT22;8192;53.596;10.166;2022-12-18T06:33:56;-9.40;99.90
16172;DHT22;8192;53.596;10.166;2022-12-18T06:36:34;-9.40;99.90
16172;DHT22;8192;53.596;10.166;2022-12-18T06:39:04;-9.50;99.90
16172;DHT22;8192;53.596;10.166;2022-12-18T06:41:37;-9.40;99.90
16172;DHT22;8192;53.596;10.166;2022-12-18T06:47:41;-9.10;99.90
16172;DHT22;8192;53.596;10.166;2022-12-18T06:50:11;-9.00;99.90
16172;DHT22;8192;53.596;10.166;2022-12-18T06:52:54;-8.90;99.90
16172;DHT22;8192;53.596;10.166;2022-12-18T06:55:23;-8.60;99.90
16172;DHT22;8192;53.596;10.166;2022-12-18T06:57:57;-8.40;99.90
16172;DHT22;8192;53.596;10.166;2022-12-18T07:00:40;-8.20;99.90
16172;DHT22;8192;53.596;10.166;2022-12-18T07:03:09;-8.00;99.90
16172;DHT22;8192;53.596;10.166;2022-12-18T07:05:46;-8.00;99.90
16172;DHT22;8192;53.596;10.166;2022-12-18T07:08:17;-7.90;99.90
16172;DHT22;8192;53.596;10.166;2022-12-18T07:10:49;-7.80;99.90
16172;DHT22;8192;53.596;10.166;2022-12-18T07:13:18;-7.60;99.90
16172;DHT22;8192;53.596;10.166;2022-12-18T07:15:47;-7.50;99.90
16172;DHT22;8192;53.596;10.166;2022-12-18T07:18:26;-7.40;99.90
16172;DHT22;8192;53.596;10.166;2022-12-18T07:21:12;-7.60;99.90
16172;DHT22;8192;53.596;10.166;2022-12-18T07:24:19;-7.60;99.90
16172;DHT22;8192;53.596;10.166;2022-12-18T07:26:52;-7.50;99.90
16172;DHT22;8192;53.596;10.166;2022-12-18T07:29:23;-7.50;99.90
16172;DHT22;8192;53.596;10.166;2022-12-18T07:32:10;-7.50;99.90
16172;DHT22;8192;53.596;10.166;2022-12-18T07:34:39;-7.50;99.90
16172;DHT22;8192;53.596;10.166;2022-12-18T07:37:08;-7.60;99.90
16172;DHT22;8192;53.596;10.166;2022-12-18T07:39:40;-7.60;99.90
16172;DHT22;8192;53.596;10.166;2022-12-18T07:42:09;-7.70;99.90
16172;DHT22;8192;53.596;10.166;2022-12-18T07:44:56;-7.70;99.90
16172;DHT22;8192;53.596;10.166;2022-12-18T07:47:24;-7.60;99.90
16172;DHT22;8192;53.596;10.166;2022-12-18T07:49:57;-7.70;99.90
16172;DHT22;8192;53.596;10.166;2022-12-18T07:52:42;-7.60;99.90
16172;DHT22;8192;53.596;10.166;2022-12-18T07:55:59;-7.70;99.90
16172;DHT22;8192;53.596;10.166;2022-12-18T07:58:49;-7.50;99.90
16172;DHT22;8192;53.596;10.166;2022-12-18T08:01:37;-7.50;99.90
16172;DHT22;8192;53.596;10.166;2022-12-18T08:04:24;-7.40;99.90
16172;DHT22;8192;53.596;10.166;2022-12-18T08:07:10;-7.50;99.90
16172;DHT22;8192;53.596;10.166;2022-12-18T08:10:01;-7.40;99.90
16172;DHT22;8192;53.596;10.166;2022-12-18T08:12:31;-7.40;99.90
16172;DHT22;8192;53.596;10.166;2022-12-18T08:15:14;-7.30;99.90
16172;DHT22;8192;53.596;10.166;2022-12-18T08:17:44;-7.30;99.90
16172;DHT22;8192;53.596;10.166;2022-12-18T08:20:23;-7.20;99.90
16172;DHT22;8192;53.596;10.166;2022-12-18T08:22:52;-7.20;99.90
16172;DHT22;8192;53.596;10.166;2022-12-18T08:25:23;-7.00;99.90
16172;DHT22;8192;53.596;10.166;2022-12-18T08:27:54;-6.90;99.90
16172;DHT22;8192;53.596;10.166;2022-12-18T08:30:23;-6.80;99.90
16172;DHT22;8192;53.596;10.166;2022-12-18T08:32:55;-6.70;99.90
16172;DHT22;8192;53.596;10.166;2022-12-18T08:35:24;-6.60;99.90
16172;DHT22;8192;53.596;10.166;2022-12-18T08:37:53;-6.60;99.90
16172;DHT22;8192;53.596;10.166;2022-12-18T08:40:23;-6.50;99.90
16172;DHT22;8192;53.596;10.166;2022-12-18T08:42:54;-6.50;99.90
16172;DHT22;8192;53.596;10.166;2022-12-18T08:45:38;-6.50;99.90
16172;DHT22;8192;53.596;10.166;2022-12-18T08:48:10;-6.50;99.90
16172;DHT22;8192;53.596;10.166;2022-12-18T08:50:37;-6.50;99.90
16172;DHT22;8192;53.596;10.166;2022-12-18T08:53:10;-6.50;99.90
16172;DHT22;8192;53.596;10.166;2022-12-18T08:55:48;-6.40;99.90
16172;DHT22;8192;53.596;10.166;2022-12-18T08:58:19;-6.30;99.90
16172;DHT22;8192;53.596;10.166;2022-12-18T09:00:51;-6.30;99.90
16172;DHT22;8192;53.596;10.166;2022-12-18T09:03:19;-6.10;99.90
16172;DHT22;8192;53.596;10.166;2022-12-18T09:05:48;-6.10;99.90
16172;DHT22;8192;53.596;10.166;2022-12-18T09:08:25;-6.10;99.90
16172;DHT22;8192;53.596;10.166;2022-12-18T09:11:03;-5.90;99.90
16172;DHT22;8192;53.596;10.166;2022-12-18T09:13:50;-6.00;99.90
16172;DHT22;8192;53.596;10.166;2022-12-18T09:16:49;-6.10;99.90
16172;DHT22;8192;53.596;10.166;2022-12-18T09:19:25;-5.90;99.90
16172;DHT22;8192;53.596;10.166;2022-12-18T09:22:10;-5.80;99.90
16172;DHT22;8192;53.596;10.166;2022-12-18T09:24:40;-5.90;99.90
16172;DHT22;8192;53.596;10.166;2022-12-18T09:27:10;-5.90;99.90
16172;DHT22;8192;53.596;10.166;2022-12-18T09:29:40;-5.70;99.90
16172;DHT22;8192;53.596;10.166;2022-12-18T09:32:11;-5.70;99.90
16172;DHT22;8192;53.596;10.166;2022-12-18T09:34:42;-5.70;99.90
16172;DHT22;8192;53.596;10.166;2022-12-18T09:37:11;-5.70;99.90
16172;DHT22;8192;53.596;10.166;2022-12-18T09:39:51;-5.40;99.90
16172;DHT22;8192;53.596;10.166;2022-12-18T09:42:33;-5.40;99.90
16172;DHT22;8192;53.596;10.166;2022-12-18T09:45:07;-5.30;99.90
16172;DHT22;8192;53.596;10.166;2022-12-18T09:47:48;-5.30;99.90
16172;DHT22;8192;53.596;10.166;2022-12-18T09:50:36;-5.10;99.90
16172;DHT22;8192;53.596;10.166;2022-12-18T09:53:13;-5.00;99.90
16172;DHT22;8192;53.596;10.166;2022-12-18T09:56:00;-4.90;99.90
16172;DHT22;8192;53.596;10.166;2022-12-18T09:59:15;-4.90;99.90
16172;DHT22;8192;53.596;10.166;2022-12-18T10:19:46;-4.40;99.90
16172;DHT22;8192;53.596;10.166;2022-12-18T10:47:20;-4.20;99.90
16172;DHT22;8192;53.596;10.166;2022-12-18T10:50:23;-4.20;99.90
16172;DHT22;8192;53.596;10.166;2022-12-18T10:53:27;-4.10;99.90
16172;DHT22;8192;53.596;10.166;2022-12-18T10:56:24;-3.90;99.90
16172;DHT22;8192;53.596;10.166;2022-12-18T11:20:34;-3.30;99.90
16172;DHT22;8192;53.596;10.166;2022-12-18T11:23:12;-3.40;99.90
16172;DHT22;8192;53.596;10.166;2022-12-18T12:12:14;-2.80;99.90
16172;DHT22;8192;53.596;10.166;2022-12-18T12:14:59;-2.80;99.90
16172;DHT22;8192;53.596;10.166;2022-12-18T12:17:48;-2.90;99.90
16172;DHT22;8192;53.596;10.166;2022-12-18T12:20:28;-2.90;99.90
16172;DHT22;8192;53.596;10.166;2022-12-18T12:23:26;-2.90;99.90
16172;DHT22;8192;53.596;10.166;2022-12-18T12:26:14;-2.80;99.90
16172;DHT22;8192;53.596;10.166;2022-12-18T12:29:29;-2.80;99.90
16172;DHT22;8192;53.596;10.166;2022-12-18T12:32:23;-2.80;99.90
16172;DHT22;8192;53.596;10.166;2022-12-18T12:35:22;-2.80;99.90
16172;DHT22;8192;53.596;10.166;2022-12-18T12:38:09;-2.90;99.90
16172;DHT22;8192;53.596;10.166;2022-12-18T12:40:54;-2.80;99.90
16172;DHT22;8192;53.596;10.166;2022-12-18T12:43:33;-2.80;99.90
16172;DHT22;8192;53.596;10.166;2022-12-18T12:46:04;-2.80;99.90
16172;DHT22;8192;53.596;10.166;2022-12-18T12:48:37;-2.80;99.90
16172;DHT22;8192;53.596;10.166;2022-12-18T12:51:14;-2.80;99.90
16172;DHT22;8192;53.596;10.166;2022-12-18T12:53:51;-2.80;99.90
16172;DHT22;8192;53.596;10.166;2022-12-18T12:59:49;-2.60;99.90
16172;DHT22;8192;53.596;10.166;2022-12-18T13:02:47;-2.60;99.90
16172;DHT22;8192;53.596;10.166;2022-12-18T13:05:25;-2.60;99.90
16172;DHT22;8192;53.596;10.166;2022-12-18T13:07:59;-2.60;99.90
16172;DHT22;8192;53.596;10.166;2022-12-18T13:10:34;-2.50;99.90
16172;DHT22;8192;53.596;10.166;2022-12-18T13:13:18;-2.50;99.90
16172;DHT22;8192;53.596;10.166;2022-12-18T13:16:03;-2.50;99.90
16172;DHT22;8192;53.596;10.166;2022-12-18T13:18:55;-2.40;99.90
16172;DHT22;8192;53.596;10.166;2022-12-18T13:21:54;-2.50;99.90
16172;DHT22;8192;53.596;10.166;2022-12-18T13:48:39;-2.70;99.90
16172;DHT22;8192;53.596;10.166;2022-12-18T13:51:17;-2.80;99.90
16172;DHT22;8192;53.596;10.166;2022-12-18T13:54:02;-2.90;99.90
16172;DHT22;8192;53.596;10.166;2022-12-18T13:56:44;-3.00;99.90
16172;DHT22;8192;53.596;10.166;2022-12-18T13:59:46;-3.10;99.90
16172;DHT22;8192;53.596;10.166;2022-12-18T14:02:33;-3.20;99.90
16172;DHT22;8192;53.596;10.166;2022-12-18T14:05:43;-3.30;99.90
16172;DHT22;8192;53.596;10.166;2022-12-18T14:08:38;-3.30;99.90
16172;DHT22;8192;53.596;10.166;2022-12-18T14:11:20;-3.40;99.90
16172;DHT22;8192;53.596;10.166;2022-12-18T14:14:03;-3.30;99.90
16172;DHT22;8192;53.596;10.166;2022-12-18T14:16:34;-3.30;99.90
16172;DHT22;8192;53.596;10.166;2022-12-18T14:19:12;-3.30;99.90
16172;DHT22;8192;53.596;10.166;2022-12-18T14:21:56;-3.30;99.90
16172;DHT22;8192;53.596;10.166;2022-12-18T14:27:49;-3.20;99.90
16172;DHT22;8192;53.596;10.166;2022-12-18T14:30:30;-3.40;99.90
16172;DHT22;8192;53.596;10.166;2022-12-18T14:33:05;-3.30;99.90
16172;DHT22;8192;53.596;10.166;2022-12-18T14:35:36;-3.40;99.90
16172;DHT22;8192;53.596;10.166;2022-12-18T14:38:21;-3.40;99.90
16172;DHT22;8192;53.596;10.166;2022-12-18T14:41:03;-3.40;99.90
16172;DHT22;8192;53.596;10.166;2022-12-18T14:46:56;-3.50;99.90
16172;DHT22;8192;53.596;10.166;2022-12-18T14:49:29;-3.60;99.90
16172;DHT22;8192;53.596;10.166;2022-12-18T14:55:22;-3.70;99.90
16172;DHT22;8192;53.596;10.166;2022-12-18T14:57:53;-3.80;99.90
16172;DHT22;8192;53.596;10.166;2022-12-18T15:00:23;-3.80;99.90
16172;DHT22;8192;53.596;10.166;2022-12-18T15:02:54;-3.80;99.90
16172;DHT22;8192;53.596;10.166;2022-12-18T15:05:30;-3.90;99.90
16172;DHT22;8192;53.596;10.166;2022-12-18T15:08:00;-4.00;99.90
16172;DHT22;8192;53.596;10.166;2022-12-18T15:10:33;-4.10;99.90
16172;DHT22;8192;53.596;10.166;2022-12-18T15:13:16;-4.10;99.90
16172;DHT22;8192;53.596;10.166;2022-12-18T15:15:49;-4.20;99.90
16172;DHT22;8192;53.596;10.166;2022-12-18T15:18:19;-4.20;99.90
16172;DHT22;8192;53.596;10.166;2022-12-18T15:20:51;-4.20;99.90
16172;DHT22;8192;53.596;10.166;2022-12-18T15:23:24;-4.30;99.90
16172;DHT22;8192;53.596;10.166;2022-12-18T15:26:03;-4.30;99.90
16172;DHT22;8192;53.596;10.166;2022-12-18T15:28:38;-4.30;99.90
16172;DHT22;8192;53.596;10.166;2022-12-18T15:31:23;-4.40;99.90
16172;DHT22;8192;53.596;10.166;2022-12-18T15:34:20;-4.50;99.90
16172;DHT22;8192;53.596;10.166;2022-12-18T15:44:00;-4.60;99.90
16172;DHT22;8192;53.596;10.166;2022-12-18T15:46:36;-4.60;99.90
16172;DHT22;8192;53.596;10.166;2022-12-18T15:49:06;-4.60;99.90
16172;DHT22;8192;53.596;10.166;2022-12-18T15:51:43;-4.70;99.90
16172;DHT22;8192;53.596;10.166;2022-12-18T15:54:24;-4.60;99.90
16172;DHT22;8192;53.596;10.166;2022-12-18T15:57:08;-4.60;99.90
16172;DHT22;8192;53.596;10.166;2022-12-18T15:59:57;-4.60;99.90
16172;DHT22;8192;53.596;10.166;2022-12-18T16:02:27;-4.50;99.90
16172;DHT22;8192;53.596;10.166;2022-12-18T16:04:56;-4.60;99.90
16172;DHT22;8192;53.596;10.166;2022-12-18T16:07:29;-4.60;99.90
16172;DHT22;8192;53.596;10.166;2022-12-18T16:09:58;-4.60;99.90
16172;DHT22;8192;53.596;10.166;2022-12-18T16:12:28;-4.50;99.90
16172;DHT22;8192;53.596;10.166;2022-12-18T16:15:00;-4.40;99.90
16172;DHT22;8192;53.596;10.166;2022-12-18T16:17:30;-4.50;99.90
16172;DHT22;8192;53.596;10.166;2022-12-18T16:20:08;-4.50;99.90
16172;DHT22;8192;53.596;10.166;2022-12-18T16:22:59;-4.50;99.90
16172;DHT22;8192;53.596;10.166;2022-12-18T16:25:34;-4.40;99.90
16172;DHT22;8192;53.596;10.166;2022-12-18T16:28:02;-4.50;99.90
16172;DHT22;8192;53.596;10.166;2022-12-18T16:30:50;-4.50;99.90
16172;DHT22;8192;53.596;10.166;2022-12-18T16:33:23;-4.40;99.90
16172;DHT22;8192;53.596;10.166;2022-12-18T16:35:59;-4.50;99.90
16172;DHT22;8192;53.596;10.166;2022-12-18T16:38:35;-4.50;99.90
16172;DHT22;8192;53.596;10.166;2022-12-18T16:41:17;-4.50;99.90
16172;DHT22;8192;53.596;10.166;2022-12-18T16:44:01;-4.50;99.90
16172;DHT22;8192;53.596;10.166;2022-12-18T16:46:43;-4.50;99.90
16172;DHT22;8192;53.596;10.166;2022-12-18T16:49:13;-4.50;99.90
16172;DHT22;8192;53.596;10.166;2022-12-18T16:51:42;-4.40;99.90
16172;DHT22;8192;53.596;10.166;2022-12-18T16:54:18;-4.50;99.90
16172;DHT22;8192;53.596;10.166;2022-12-18T16:56:46;-4.50;99.90
16172;DHT22;8192;53.596;10.166;2022-12-18T16:59:18;-4.50;99.90
16172;DHT22;8192;53.596;10.166;2022-12-18T17:01:56;-4.40;99.90
16172;DHT22;8192;53.596;10.166;2022-12-18T17:05:12;-4.40;99.90
16172;DHT22;8192;53.596;10.166;2022-12-18T17:07:45;-4.30;99.90
16172;DHT22;8192;53.596;10.166;2022-12-18T17:10:15;-4.40;99.90
16172;DHT22;8192;53.596;10.166;2022-12-18T17:12:45;-4.30;99.90
16172;DHT22;8192;53.596;10.166;2022-12-18T17:15:12;-4.30;99.90
16172;DHT22;8192;53.596;10.166;2022-12-18T17:17:46;-4.10;99.90
16172;DHT22;8192;53.596;10.166;2022-12-18T17:20:20;-4.20;99.90
16172;DHT22;8192;53.596;10.166;2022-12-18T17:22:51;-4.20;99.90
16172;DHT22;8192;53.596;10.166;2022-12-18T17:25:19;-4.20;99.90
16172;DHT22;8192;53.596;10.166;2022-12-18T17:28:02;-4.10;99.90
16172;DHT22;8192;53.596;10.166;2022-12-18T17:30:29;-4.10;99.90
16172;DHT22;8192;53.596;10.166;2022-12-18T17:32:59;-4.20;99.90
16172;DHT22;8192;53.596;10.166;2022-12-18T17:35:27;-4.10;99.90
16172;DHT22;8192;53.596;10.166;2022-12-18T17:37:58;-4.10;99.90
16172;DHT22;8192;53.596;10.166;2022-12-18T17:40:26;-4.10;99.90
16172;DHT22;8192;53.596;10.166;2022-12-18T17:42:56;-4.00;99.90
16172;DHT22;8192;53.596;10.166;2022-12-18T17:45:38;-4.10;99.90
16172;DHT22;8192;53.596;10.166;2022-12-18T17:48:14;-4.10;99.90
16172;DHT22;8192;53.596;10.166;2022-12-18T17:50:47;-4.10;99.90
16172;DHT22;8192;53.596;10.166;2022-12-18T17:53:18;-4.10;99.90
16172;DHT22;8192;53.596;10.166;2022-12-18T17:55:53;-4.10;99.90
16172;DHT22;8192;53.596;10.166;2022-12-18T17:58:23;-4.10;99.90
16172;DHT22;8192;53.596;10.166;2022-12-18T18:00:52;-4.10;99.90
16172;DHT22;8192;53.596;10.166;2022-12-18T18:03:40;-4.10;99.90
16172;DHT22;8192;53.596;10.166;2022-12-18T18:06:18;-4.00;99.90
16172;DHT22;8192;53.596;10.166;2022-12-18T18:08:47;-4.10;99.90
16172;DHT22;8192;53.596;10.166;2022-12-18T18:11:16;-4.00;99.90
16172;DHT22;8192;53.596;10.166;2022-12-18T18:14:05;-4.10;99.90
16172;DHT22;8192;53.596;10.166;2022-12-18T18:16:39;-4.00;99.90
16172;DHT22;8192;53.596;10.166;2022-12-18T18:19:39;-3.90;99.90
16172;DHT22;8192;53.596;10.166;2022-12-18T18:22:08;-4.00;99.90
16172;DHT22;8192;53.596;10.166;2022-12-18T18:24:42;-4.00;99.90
16172;DHT22;8192;53.596;10.166;2022-12-18T18:27:23;-4.00;99.90
16172;DHT22;8192;53.596;10.166;2022-12-18T18:30:05;-3.90;99.90
16172;DHT22;8192;53.596;10.166;2022-12-18T18:35:08;-3.90;99.90
16172;DHT22;8192;53.596;10.166;2022-12-18T18:37:37;-3.90;99.90
16172;DHT22;8192;53.596;10.166;2022-12-18T18:40:06;-3.90;99.90
16172;DHT22;8192;53.596;10.166;2022-12-18T18:42:40;-3.90;99.90
16172;DHT22;8192;53.596;10.166;2022-12-18T18:45:09;-3.80;99.90
16172;DHT22;8192;53.596;10.166;2022-12-18T18:47:36;-3.80;99.90
16172;DHT22;8192;53.596;10.166;2022-12-18T18:50:10;-3.70;99.90
16172;DHT22;8192;53.596;10.166;2022-12-18T18:52:41;-3.80;99.90
16172;DHT22;8192;53.596;10.166;2022-12-18T18:55:16;-3.80;99.90
16172;DHT22;8192;53.596;10.166;2022-12-18T18:57:56;-3.80;99.90
16172;DHT22;8192;53.596;10.166;2022-12-18T19:00:30;-3.70;99.90
16172;DHT22;8192;53.596;10.166;2022-12-18T19:03:03;-3.80;99.90
16172;DHT22;8192;53.596;10.166;2022-12-18T19:05:34;-3.70;99.90
16172;DHT22;8192;53.596;10.166;2022-12-18T19:08:11;-3.70;99.90
16172;DHT22;8192;53.596;10.166;2022-12-18T19:11:03;-3.70;99.90
16172;DHT22;8192;53.596;10.166;2022-12-18T19:13:53;-3.60;99.90
16172;DHT22;8192;53.596;10.166;2022-12-18T19:19:37;-3.80;99.90
16172;DHT22;8192;53.596;10.166;2022-12-18T19:25:38;-3.70;99.90
16172;DHT22;8192;53.596;10.166;2022-12-18T19:28:20;-3.60;99.90
16172;DHT22;8192;53.596;10.166;2022-12-18T19:31:09;-3.70;99.90
16172;DHT22;8192;53.596;10.166;2022-12-18T19:33:41;-3.60;99.90
16172;DHT22;8192;53.596;10.166;2022-12-18T19:36:20;-3.60;99.90
16172;DHT22;8192;53.596;10.166;2022-12-18T19:39:06;-3.60;99.90
16172;DHT22;8192;53.596;10.166;2022-12-18T19:42:06;-3.50;99.90
16172;DHT22;8192;53.596;10.166;2022-12-18T19:44:41;-3.50;99.90
16172;DHT22;8192;53.596;10.166;2022-12-18T19:47:24;-3.50;99.90
16172;DHT22;8192;53.596;10.166;2022-12-18T19:49:58;-3.50;99.90
16172;DHT22;8192;53.596;10.166;2022-12-18T19:52:30;-3.50;99.90
16172;DHT22;8192;53.596;10.166;2022-12-18T19:55:02;-3.50;99.90
16172;DHT22;8192;53.596;10.166;2022-12-18T19:57:40;-3.40;99.90
16172;DHT22;8192;53.596;10.166;2022-12-18T20:00:11;-3.50;99.90
16172;DHT22;8192;53.596;10.166;2022-12-18T20:02:59;-3.40;99.90
16172;DHT22;8192;53.596;10.166;2022-12-18T20:05:42;-3.30;99.90
16172;DHT22;8192;53.596;10.166;2022-12-18T20:08:15;-3.30;99.90
16172;DHT22;8192;53.596;10.166;2022-12-18T20:10:48;-3.30;99.90
16172;DHT22;8192;53.596;10.166;2022-12-18T20:13:54;-3.30;99.90
16172;DHT22;8192;53.596;10.166;2022-12-18T20:20:22;-3.30;99.90
16172;DHT22;8192;53.596;10.166;2022-12-18T20:23:15;-3.20;99.90
16172;DHT22;8192;53.596;10.166;2022-12-18T20:25:53;-3.20;99.90
16172;DHT22;8192;53.596;10.166;2022-12-18T20:28:30;-3.20;99.90
16172;DHT22;8192;53.596;10.166;2022-12-18T20:31:19;-3.20;99.90
16172;DHT22;8192;53.596;10.166;2022-12-18T20:34:08;-3.20;99.90
16172;DHT22;8192;53.596;10.166;2022-12-18T20:37:00;-3.10;99.90
16172;DHT22;8192;53.596;10.166;2022-12-18T20:39:47;-3.20;99.90
16172;DHT22;8192;53.596;10.166;2022-12-18T20:49:19;-3.20;99.90
16172;DHT22;8192;53.596;10.166;2022-12-18T20:52:31;-3.30;99.90
16172;DHT22;8192;53.596;10.166;2022-12-18T20:55:17;-3.10;99.90
16172;DHT22;8192;53.596;10.166;2022-12-18T20:57:58;-3.10;99.90
16172;DHT22;8192;53.596;10.166;2022-12-18T21:01:00;-3.10;99.90
16172;DHT22;8192;53.596;10.166;2022-12-18T21:03:37;-3.20;99.90
16172;DHT22;8192;53.596;10.166;2022-12-18T21:06:20;-3.20;99.90
16172;DHT22;8192;53.596;10.166;2022-12-18T21:09:00;-3.10;99.90
16172;DHT22;8192;53.596;10.166;2022-12-18T21:11:42;-3.20;99.90
16172;DHT22;8192;53.596;10.166;2022-12-18T21:14:38;-2.90;99.90
16172;DHT22;8192;53.596;10.166;2022-12-18T21:25:39;-2.80;99.90